createdAt,value
2022-10-25T00:00:57.859Z,99.99
2022-10-25T00:01:57.946Z,99.99
2022-10-25T00:02:57.857Z,99.99
2022-10-25T00:03:57.827Z,99.99
2022-10-25T00:04:57.825Z,99.99
2022-10-25T00:05:57.839Z,99.99
2022-10-25T00:06:57.803Z,99.99
2022-10-25T00:07:57.797Z,99.99
2022-10-25T00:08:57.776Z,99.99
2022-10-25T00:09:57.789Z,99.99
2022-10-25T00:10:57.784Z,99.99
2022-10-25T00:11:57.802Z,99.99
2022-10-25T00:12:57.741Z,99.99
2022-10-25T00:13:57.721Z,99.99
2022-10-25T00:14:57.715Z,99.99
2022-10-25T00:15:57.717Z,99.99
2022-10-25T00:16:57.696Z,99.99
2022-10-25T00:17:57.690Z,99.99
2022-10-25T00:18:57.743Z,99.99
2022-10-25T00:19:57.661Z,99.99
2022-10-25T00:20:57.689Z,99.99
2022-10-25T00:21:57.637Z,99.99
2022-10-25T00:22:57.635Z,99.99
2022-10-25T00:23:57.633Z,99.99
2022-10-25T00:24:57.647Z,99.99
2022-10-25T00:25:57.631Z,99.99
2022-10-25T00:26:57.617Z,99.99
2022-10-25T00:27:57.581Z,99.99
2022-10-25T00:28:57.571Z,99.99
2022-10-25T00:29:57.615Z,99.99
2022-10-25T00:30:57.554Z,99.99
2022-10-25T00:31:57.585Z,99.99
2022-10-25T00:32:57.531Z,99.99
2022-10-25T00:33:57.535Z,99.99
2022-10-25T00:34:57.519Z,99.99
2022-10-25T00:35:57.511Z,99.99
2022-10-25T00:36:57.487Z,99.99
2022-10-25T00:37:57.493Z,99.99
2022-10-25T00:38:57.462Z,99.99
2022-10-25T00:39:57.484Z,99.99
2022-10-25T00:40:57.457Z,99.99
2022-10-25T00:41:57.451Z,99.99
2022-10-25T00:42:57.454Z,99.99
2022-10-25T00:43:57.420Z,99.99
2022-10-25T00:44:57.399Z,99.99
2022-10-25T00:45:57.456Z,99.99
2022-10-25T00:46:57.379Z,99.99
2022-10-25T00:47:57.395Z,99.99
2022-10-25T00:48:57.373Z,99.99
2022-10-25T00:49:57.371Z,99.99
2022-10-25T00:50:57.341Z,99.99
2022-10-25T00:51:57.329Z,99.99
2022-10-25T00:52:57.324Z,99.99
2022-10-25T00:53:57.324Z,99.99
2022-10-25T00:54:57.289Z,99.99
2022-10-25T00:55:57.290Z,99.99
2022-10-25T00:56:57.323Z,99.99
2022-10-25T00:57:57.272Z,99.99
2022-10-25T00:58:57.316Z,99.99
2022-10-25T00:59:57.247Z,99.99
2022-10-25T01:00:57.266Z,99.99
2022-10-25T01:01:57.390Z,99.99
2022-10-25T01:02:57.231Z,99.99
2022-10-25T01:03:57.225Z,99.99
2022-10-25T01:04:57.205Z,99.99
2022-10-25T01:05:57.173Z,99.99
2022-10-25T01:06:57.206Z,99.99
2022-10-25T01:07:57.223Z,99.99
2022-10-25T01:08:57.173Z,99.99
2022-10-25T01:09:57.135Z,99.99
2022-10-25T01:10:57.114Z,99.99
2022-10-25T01:11:57.116Z,99.99
2022-10-25T01:12:57.405Z,99.99
2022-10-25T01:13:57.084Z,99.99
2022-10-25T01:14:57.099Z,99.99
2022-10-25T01:15:57.071Z,99.99
2022-10-25T01:16:57.066Z,99.99
2022-10-25T01:17:57.050Z,99.99
2022-10-25T01:18:57.054Z,99.99
2022-10-25T01:19:57.033Z,99.99
2022-10-25T01:20:57.011Z,99.99
2022-10-25T01:21:57.018Z,99.99
2022-10-25T01:22:56.994Z,99.99
2022-10-25T01:23:57.020Z,99.99
2022-10-25T01:24:56.974Z,99.99
2022-10-25T01:25:56.994Z,99.99
2022-10-25T01:26:56.965Z,99.99
2022-10-25T01:29:04.769Z,99.99
2022-10-25T01:29:56.973Z,99.99
2022-10-25T01:30:56.928Z,99.99
2022-10-25T01:31:56.900Z,99.99
2022-10-25T01:32:56.904Z,99.99
2022-10-25T01:33:56.872Z,99.99
2022-10-25T01:34:56.901Z,99.99
2022-10-25T01:35:56.877Z,99.99
2022-10-25T01:36:56.870Z,99.99
2022-10-25T01:37:56.824Z,99.99
2022-10-25T01:38:56.826Z,99.99
2022-10-25T01:39:56.815Z,99.99
2022-10-25T01:40:56.801Z,99.99
2022-10-25T01:41:56.784Z,99.99
2022-10-25T01:42:56.790Z,99.99
2022-10-25T01:43:56.770Z,99.99
2022-10-25T01:44:56.768Z,99.99
2022-10-25T01:45:56.755Z,99.99
2022-10-25T01:46:56.774Z,99.99
2022-10-25T01:47:56.732Z,99.99
2022-10-25T01:48:56.720Z,99.99
2022-10-25T01:49:56.712Z,99.99
2022-10-25T01:50:56.686Z,99.74
2022-10-25T01:51:56.685Z,99.74
2022-10-25T01:52:56.681Z,99.94
2022-10-25T01:53:56.684Z,99.99
2022-10-25T01:54:56.670Z,99.22
2022-10-25T01:55:56.657Z,99.49
2022-10-25T01:56:56.693Z,99.43
2022-10-25T01:57:56.623Z,99.38
2022-10-25T01:58:56.625Z,99.49
2022-10-25T01:59:56.603Z,99.74
2022-10-25T02:00:56.660Z,99.08
2022-10-25T02:01:56.585Z,99.13
2022-10-25T02:02:56.633Z,98.68
2022-10-25T02:03:56.569Z,98.77
2022-10-25T02:04:56.552Z,98.97
2022-10-25T02:05:56.555Z,98.37
2022-10-25T02:06:56.524Z,98.47
2022-10-25T02:07:56.516Z,98.37
2022-10-25T02:08:56.548Z,98.68
2022-10-25T02:09:56.543Z,98.57
2022-10-25T02:10:56.494Z,98.27
2022-10-25T02:11:56.535Z,98.27
2022-10-25T02:13:05.117Z,98.57
2022-10-25T02:13:56.535Z,98.07
2022-10-25T02:14:56.503Z,98.57
2022-10-25T02:15:56.442Z,98.88
2022-10-25T02:17:05.504Z,98.77
2022-10-25T02:17:56.521Z,98.77
2022-10-25T02:18:56.427Z,98.68
2022-10-25T02:20:06.584Z,98.37
2022-10-25T02:20:56.436Z,98.68
2022-10-25T02:21:56.477Z,98.68
2022-10-25T02:23:04.099Z,98.37
2022-10-25T02:25:07.793Z,98.57
2022-10-25T02:27:19.162Z,98.21
2022-10-25T02:28:28.816Z,98.52
2022-10-25T02:29:19.131Z,98.52
2022-10-25T02:30:26.629Z,98.52
2022-10-25T02:31:19.091Z,98.41
2022-10-25T02:32:19.062Z,98.82
2022-10-25T02:34:30.769Z,98.72
2022-10-25T02:36:42.102Z,98.72
2022-10-25T02:37:49.941Z,98.52
2022-10-25T02:38:50.698Z,98.72
2022-10-25T02:40:53.472Z,98.82
2022-10-25T02:41:53.473Z,98.82
2022-10-25T02:43:03.034Z,98.62
2022-10-25T02:44:01.070Z,98.32
2022-10-25T02:45:01.627Z,98.21
2022-10-25T02:47:03.878Z,98.62
2022-10-25T02:49:15.516Z,98.47
2022-10-25T02:50:26.718Z,97.80
2022-10-25T02:51:23.808Z,98.57
2022-10-25T02:52:23.809Z,97.86
2022-10-25T02:54:25.639Z,97.35
2022-10-25T02:55:25.493Z,96.48
2022-10-25T02:57:36.530Z,96.14
2022-10-25T02:59:48.157Z,96.23
2022-10-25T03:00:48.048Z,96.03
2022-10-25T03:01:48.050Z,96.44
2022-10-25T03:02:57.774Z,96.23
2022-10-25T03:06:08.447Z,96.54
2022-10-25T03:07:16.943Z,95.32
2022-10-25T03:08:17.996Z,96.14
2022-10-25T03:09:08.334Z,95.28
2022-10-25T03:10:15.929Z,95.42
2022-10-25T03:11:08.292Z,95.42
2022-10-25T03:13:19.619Z,95.53
2022-10-25T03:14:19.587Z,95.42
2022-10-25T03:15:19.565Z,95.02
2022-10-25T03:16:19.551Z,94.82
2022-10-25T03:17:28.178Z,95.18
2022-10-25T03:18:19.660Z,94.82
2022-10-25T03:19:29.363Z,95.12
2022-10-25T03:20:19.558Z,94.71
2022-10-25T03:21:28.103Z,94.06
2022-10-25T03:22:28.061Z,94.51
2022-10-25T03:23:19.519Z,94.17
2022-10-25T03:24:19.479Z,94.51
2022-10-25T03:25:19.434Z,94.61
2022-10-25T03:26:19.398Z,94.51
2022-10-25T03:27:27.995Z,94.46
2022-10-25T03:28:29.473Z,93.90
2022-10-25T03:29:19.476Z,93.90
2022-10-25T03:30:27.070Z,94.00
2022-10-25T03:31:26.962Z,94.00
2022-10-25T03:35:39.792Z,93.90
2022-10-25T03:36:47.204Z,93.90
2022-10-25T03:37:39.692Z,93.90
2022-10-25T03:38:39.664Z,94.31
2022-10-25T03:39:39.625Z,93.90
2022-10-25T03:40:39.607Z,94.00
2022-10-25T03:41:48.241Z,94.31
2022-10-25T03:42:39.623Z,93.90
2022-10-25T03:43:48.167Z,93.90
2022-10-25T03:44:48.257Z,93.90
2022-10-25T03:45:49.160Z,94.00
2022-10-25T03:46:39.594Z,94.00
2022-10-25T03:47:39.552Z,94.10
2022-10-25T03:48:39.500Z,93.90
2022-10-25T03:49:50.362Z,93.90
2022-10-25T03:50:39.483Z,93.90
2022-10-25T03:51:39.457Z,93.80
2022-10-25T03:52:39.448Z,94.31
2022-10-25T03:53:47.054Z,94.41
2022-10-25T03:54:39.562Z,94.67
2022-10-25T03:55:39.453Z,94.51
2022-10-25T03:56:39.398Z,94.92
2022-10-25T03:57:39.381Z,94.82
2022-10-25T03:58:39.367Z,94.92
2022-10-25T03:59:39.376Z,95.02
2022-10-25T04:00:39.420Z,95.02
2022-10-25T04:01:39.428Z,95.22
2022-10-25T04:02:39.312Z,95.63
2022-10-25T04:03:39.304Z,95.53
2022-10-25T04:04:39.306Z,95.63
2022-10-25T04:05:39.296Z,96.18
2022-10-25T04:06:39.286Z,95.98
2022-10-25T04:07:39.256Z,96.48
2022-10-25T04:08:39.272Z,96.59
2022-10-25T04:09:39.245Z,95.78
2022-10-25T04:10:39.225Z,96.48
2022-10-25T04:11:39.239Z,96.18
2022-10-25T04:12:39.250Z,96.18
2022-10-25T04:13:46.832Z,96.28
2022-10-25T04:14:39.281Z,96.08
2022-10-25T04:15:39.218Z,95.98
2022-10-25T04:16:39.202Z,96.48
2022-10-25T04:17:39.197Z,95.78
2022-10-25T04:18:39.162Z,96.69
2022-10-25T04:19:39.133Z,96.48
2022-10-25T04:20:39.115Z,96.18
2022-10-25T04:21:39.165Z,96.38
2022-10-25T04:22:39.109Z,95.87
2022-10-25T04:23:39.102Z,96.18
2022-10-25T04:24:39.111Z,95.78
2022-10-25T04:25:39.078Z,95.98
2022-10-25T04:26:39.060Z,96.08
2022-10-25T04:27:39.063Z,95.78
2022-10-25T04:28:39.049Z,95.98
2022-10-25T04:29:39.034Z,95.67
2022-10-25T04:30:39.068Z,95.98
2022-10-25T04:31:39.000Z,96.08
2022-10-25T04:32:38.995Z,95.98
2022-10-25T04:33:39.001Z,96.38
2022-10-25T04:34:38.973Z,95.82
2022-10-25T04:35:38.967Z,96.43
2022-10-25T04:36:38.983Z,96.43
2022-10-25T04:37:38.991Z,96.53
2022-10-25T04:38:38.927Z,96.63
2022-10-25T04:39:38.913Z,97.44
2022-10-25T04:40:38.957Z,97.24
2022-10-25T04:41:38.897Z,96.83
2022-10-25T04:42:38.914Z,97.44
2022-10-25T04:43:38.876Z,97.44
2022-10-25T04:44:38.873Z,96.83
2022-10-25T04:45:38.861Z,97.08
2022-10-25T04:46:38.860Z,97.08
2022-10-25T04:47:38.833Z,97.94
2022-10-25T04:48:38.836Z,98.14
2022-10-25T04:49:38.817Z,97.94
2022-10-25T04:50:38.864Z,98.80
2022-10-25T04:51:38.861Z,98.60
2022-10-25T04:52:38.831Z,98.91
2022-10-25T04:53:38.768Z,98.39
2022-10-25T04:54:46.367Z,98.70
2022-10-25T04:55:47.338Z,99.26
2022-10-25T04:56:46.364Z,99.87
2022-10-25T04:57:49.601Z,99.87
2022-10-25T04:58:46.320Z,99.99
2022-10-25T04:59:46.270Z,99.99
2022-10-25T05:00:46.279Z,99.99
2022-10-25T05:01:38.858Z,99.87
2022-10-25T05:02:38.850Z,99.99
2022-10-25T05:03:38.706Z,99.99
2022-10-25T05:04:38.650Z,99.99
2022-10-25T05:05:38.653Z,99.99
2022-10-25T05:06:38.635Z,99.99
2022-10-25T05:07:38.611Z,99.99
2022-10-25T05:08:38.632Z,99.99
2022-10-25T05:09:38.615Z,99.99
2022-10-25T05:10:38.616Z,99.99
2022-10-25T05:11:38.591Z,99.99
2022-10-25T05:12:38.565Z,99.99
2022-10-25T05:13:38.598Z,99.99
2022-10-25T05:14:38.563Z,99.99
2022-10-25T05:15:38.532Z,99.99
2022-10-25T05:16:38.527Z,99.99
2022-10-25T05:17:38.541Z,99.82
2022-10-25T05:18:38.506Z,99.82
2022-10-25T05:19:38.490Z,99.67
2022-10-25T05:20:38.480Z,99.99
2022-10-25T05:21:38.465Z,99.99
2022-10-25T05:22:38.464Z,99.99
2022-10-25T05:23:38.462Z,99.37
2022-10-25T05:24:38.426Z,99.77
2022-10-25T05:25:38.433Z,99.63
2022-10-25T05:26:38.412Z,99.16
2022-10-25T05:27:38.422Z,99.02
2022-10-25T05:28:38.384Z,99.06
2022-10-25T05:29:38.402Z,99.02
2022-10-25T05:30:38.389Z,98.61
2022-10-25T05:31:38.349Z,98.91
2022-10-25T05:32:38.351Z,98.81
2022-10-25T05:33:38.350Z,99.02
2022-10-25T05:34:38.325Z,98.61
2022-10-25T05:35:38.312Z,98.91
2022-10-25T05:36:38.325Z,98.20
2022-10-25T05:37:38.292Z,98.81
2022-10-25T05:38:38.286Z,98.91
2022-10-25T05:39:38.305Z,98.41
2022-10-25T05:40:38.260Z,98.26
2022-10-25T05:41:38.257Z,98.36
2022-10-25T05:42:38.246Z,98.36
2022-10-25T05:43:38.243Z,98.36
2022-10-25T05:44:38.219Z,98.36
2022-10-25T05:45:38.214Z,98.36
2022-10-25T05:46:38.194Z,98.26
2022-10-25T05:47:38.200Z,98.26
2022-10-25T05:48:38.184Z,98.05
2022-10-25T05:49:38.192Z,97.96
2022-10-25T05:50:38.187Z,98.20
2022-10-25T05:51:38.144Z,98.41
2022-10-25T05:52:38.134Z,98.05
2022-10-25T05:53:38.137Z,98.05
2022-10-25T05:54:38.116Z,98.05
2022-10-25T05:55:38.105Z,97.85
2022-10-25T05:56:38.109Z,98.46
2022-10-25T05:57:38.092Z,98.05
2022-10-25T05:58:38.076Z,97.85
2022-10-25T05:59:38.093Z,97.55
2022-10-25T06:01:38.184Z,98.01
2022-10-25T06:02:38.045Z,98.16
2022-10-25T06:03:38.011Z,98.01
2022-10-25T06:04:38.008Z,97.96
2022-10-25T06:05:38.000Z,97.91
2022-10-25T06:06:38.020Z,97.50
2022-10-25T06:07:37.982Z,97.71
2022-10-25T06:08:37.971Z,97.50
2022-10-25T06:09:37.952Z,97.40
2022-10-25T06:10:37.968Z,97.30
2022-10-25T06:11:37.941Z,97.40
2022-10-25T06:12:37.956Z,97.25
2022-10-25T06:13:37.931Z,96.89
2022-10-25T06:14:37.900Z,97.30
2022-10-25T06:15:37.921Z,96.89
2022-10-25T06:16:37.875Z,97.35
2022-10-25T06:17:37.899Z,96.84
2022-10-25T06:18:37.874Z,97.30
2022-10-25T06:19:37.867Z,97.50
2022-10-25T06:20:37.909Z,97.45
2022-10-25T06:21:37.829Z,97.05
2022-10-25T06:22:37.807Z,97.30
2022-10-25T06:23:37.817Z,97.35
2022-10-25T06:24:37.825Z,97.40
2022-10-25T06:25:37.830Z,97.09
2022-10-25T06:26:37.776Z,97.45
2022-10-25T06:27:37.759Z,97.05
2022-10-25T06:28:37.757Z,97.25
2022-10-25T06:29:37.743Z,97.09
2022-10-25T06:30:37.757Z,97.76
2022-10-25T06:31:37.740Z,96.84
2022-10-25T06:32:37.714Z,97.35
2022-10-25T06:33:37.711Z,97.25
2022-10-25T06:34:37.690Z,97.05
2022-10-25T06:35:37.697Z,97.11
2022-10-25T06:36:37.685Z,96.90
2022-10-25T06:37:37.654Z,96.84
2022-10-25T06:38:37.640Z,96.80
2022-10-25T06:39:37.647Z,97.00
2022-10-25T06:40:37.639Z,96.39
2022-10-25T06:41:37.889Z,97.15
2022-10-25T06:42:37.595Z,97.15
2022-10-25T06:43:37.588Z,97.35
2022-10-25T06:44:37.572Z,97.66
2022-10-25T06:45:37.568Z,97.71
2022-10-25T06:47:15.851Z,97.81
2022-10-25T06:47:45.124Z,97.71
2022-10-25T06:48:45.094Z,98.43
2022-10-25T06:49:45.060Z,98.43
2022-10-25T06:50:37.530Z,98.43
2022-10-25T06:51:37.522Z,98.12
2022-10-25T06:52:37.487Z,98.47
2022-10-25T06:53:37.495Z,98.52
2022-10-25T06:54:37.489Z,98.37
2022-10-25T06:55:37.454Z,98.32
2022-10-25T06:56:37.475Z,98.83
2022-10-25T06:57:37.433Z,98.27
2022-10-25T06:58:37.423Z,98.52
2022-10-25T06:59:37.407Z,98.47
2022-10-25T07:00:37.411Z,98.27
2022-10-25T07:01:37.568Z,98.83
2022-10-25T07:02:37.486Z,98.32
2022-10-25T07:03:37.377Z,98.12
2022-10-25T07:04:37.353Z,98.12
2022-10-25T07:05:37.353Z,98.68
2022-10-25T07:06:37.358Z,98.77
2022-10-25T07:07:37.328Z,98.22
2022-10-25T07:08:37.328Z,98.43
2022-10-25T07:09:37.328Z,98.02
2022-10-25T07:10:37.298Z,98.32
2022-10-25T07:11:37.281Z,98.32
2022-10-25T07:12:37.277Z,98.38
2022-10-25T07:13:37.261Z,98.18
2022-10-25T07:14:37.281Z,98.38
2022-10-25T07:15:39.913Z,98.28
2022-10-25T07:16:37.233Z,98.22
2022-10-25T07:17:37.215Z,97.97
2022-10-25T07:18:37.227Z,98.07
2022-10-25T07:19:37.200Z,98.07
2022-10-25T07:20:37.200Z,97.67
2022-10-25T07:21:37.193Z,98.07
2022-10-25T07:22:37.175Z,98.38
2022-10-25T07:23:37.163Z,98.07
2022-10-25T07:24:37.151Z,98.38
2022-10-25T07:25:37.144Z,98.07
2022-10-25T07:26:37.157Z,98.28
2022-10-25T07:27:37.151Z,98.48
2022-10-25T07:28:37.112Z,97.97
2022-10-25T07:29:37.106Z,98.18
2022-10-25T07:30:37.078Z,98.07
2022-10-25T07:31:37.082Z,97.87
2022-10-25T07:32:41.467Z,97.77
2022-10-25T07:33:38.043Z,97.87
2022-10-25T07:34:37.048Z,98.38
2022-10-25T07:35:46.749Z,98.07
2022-10-25T07:36:38.049Z,97.87
2022-10-25T07:37:37.024Z,97.67
2022-10-25T07:38:37.002Z,97.87
2022-10-25T07:39:36.984Z,98.07
2022-10-25T07:40:36.981Z,97.16
2022-10-25T07:41:36.989Z,97.06
2022-10-25T07:42:36.977Z,96.86
2022-10-25T07:43:36.936Z,97.36
2022-10-25T07:44:37.035Z,97.67
2022-10-25T07:45:36.922Z,97.67
2022-10-25T07:46:36.908Z,97.26
2022-10-25T07:47:36.906Z,96.75
2022-10-25T07:48:36.903Z,97.67
2022-10-25T07:49:36.891Z,97.47
2022-10-25T07:50:36.882Z,96.86
2022-10-25T07:51:36.876Z,96.86
2022-10-25T07:52:36.877Z,97.31
2022-10-25T07:53:36.860Z,97.51
2022-10-25T07:54:36.837Z,97.92
2022-10-25T07:55:36.823Z,97.81
2022-10-25T07:56:36.819Z,98.52
2022-10-25T07:57:36.785Z,98.57
2022-10-25T07:58:36.782Z,98.73
2022-10-25T07:59:36.792Z,98.52
2022-10-25T08:00:36.773Z,99.44
2022-10-25T08:01:37.059Z,99.13
2022-10-25T08:02:36.759Z,99.24
2022-10-25T08:03:36.761Z,99.74
2022-10-25T08:04:36.729Z,99.85
2022-10-25T08:05:36.715Z,99.95
2022-10-25T08:06:36.785Z,99.95
2022-10-25T08:07:36.740Z,99.64
2022-10-25T08:08:36.666Z,99.85
2022-10-25T08:09:38.752Z,99.44
2022-10-25T08:10:36.651Z,98.83
2022-10-25T08:11:36.666Z,99.60
2022-10-25T08:12:36.668Z,99.60
2022-10-25T08:13:36.611Z,99.39
2022-10-25T08:14:40.668Z,99.08
2022-10-25T08:15:37.611Z,99.39
2022-10-25T08:16:36.577Z,99.49
2022-10-25T08:17:36.600Z,98.58
2022-10-25T08:18:36.614Z,98.74
2022-10-25T08:19:36.558Z,98.94
2022-10-25T08:21:01.171Z,98.74
2022-10-25T08:21:37.524Z,98.43
2022-10-25T08:22:36.581Z,98.63
2022-10-25T08:23:45.315Z,98.63
2022-10-25T08:24:36.568Z,98.43
2022-10-25T08:25:36.533Z,98.63
2022-10-25T08:26:37.132Z,98.33
2022-10-25T08:27:36.529Z,98.43
2022-10-25T08:28:36.483Z,98.63
2022-10-25T08:29:36.450Z,98.54
2022-10-25T08:30:36.465Z,98.03
2022-10-25T08:31:36.498Z,98.74
2022-10-25T08:32:44.007Z,98.08
2022-10-25T08:33:45.005Z,98.59
2022-10-25T08:34:43.957Z,98.08
2022-10-25T08:35:36.480Z,98.18
2022-10-25T08:36:44.958Z,97.67
2022-10-25T08:37:44.394Z,98.18
2022-10-25T08:38:36.454Z,97.73
2022-10-25T08:39:36.382Z,97.78
2022-10-25T08:40:36.332Z,97.53
2022-10-25T08:41:36.338Z,97.02
2022-10-25T08:42:36.310Z,97.33
2022-10-25T08:43:36.320Z,97.13
2022-10-25T08:44:36.309Z,96.51
2022-10-25T08:45:48.504Z,96.51
2022-10-25T08:46:36.325Z,96.92
2022-10-25T08:47:45.231Z,97.13
2022-10-25T08:48:43.804Z,97.43
2022-10-25T08:49:46.632Z,96.22
2022-10-25T08:50:36.293Z,96.46
2022-10-25T08:51:36.219Z,97.02
2022-10-25T08:52:36.194Z,96.92
2022-10-25T08:53:36.213Z,97.23
2022-10-25T08:54:36.200Z,96.47
2022-10-25T08:55:41.683Z,96.07
2022-10-25T08:56:42.605Z,96.07
2022-10-25T08:57:37.152Z,95.82
2022-10-25T08:58:36.137Z,95.51
2022-10-25T08:59:36.116Z,96.22
2022-10-25T09:00:36.139Z,95.62
2022-10-25T09:01:36.194Z,95.31
2022-10-25T09:02:36.128Z,94.91
2022-10-25T09:03:36.099Z,94.71
2022-10-25T09:04:36.062Z,94.66
2022-10-25T09:05:36.054Z,94.56
2022-10-25T09:06:36.076Z,94.36
2022-10-25T09:07:38.374Z,94.86
2022-10-25T09:08:36.027Z,94.46
2022-10-25T09:09:36.063Z,94.46
2022-10-25T09:10:36.001Z,93.95
2022-10-25T09:11:36.003Z,94.36
2022-10-25T09:12:36.045Z,94.06
2022-10-25T09:14:35.946Z,92.74
2022-10-25T09:15:37.953Z,93.81
2022-10-25T09:16:35.926Z,93.71
2022-10-25T09:17:35.929Z,92.29
2022-10-25T09:18:35.909Z,92.09
2022-10-25T09:19:35.910Z,92.80
2022-10-25T09:20:35.879Z,91.38
2022-10-25T09:21:35.870Z,90.88
2022-10-25T09:22:35.867Z,90.58
2022-10-25T09:23:35.856Z,90.88
2022-10-25T09:24:35.842Z,91.18
2022-10-25T09:25:35.854Z,91.18
2022-10-25T09:26:35.816Z,91.08
2022-10-25T09:27:35.819Z,91.34
2022-10-25T09:28:35.818Z,90.94
2022-10-25T09:29:35.789Z,90.83
2022-10-25T09:30:35.776Z,90.73
2022-10-25T09:31:35.768Z,90.03
2022-10-25T09:32:35.750Z,89.42
2022-10-25T09:33:35.743Z,90.23
2022-10-25T09:34:35.740Z,91.03
2022-10-25T09:35:35.721Z,90.59
2022-10-25T09:36:35.707Z,89.72
2022-10-25T09:37:35.750Z,90.53
2022-10-25T09:38:35.689Z,90.69
2022-10-25T09:39:35.699Z,90.69
2022-10-25T09:40:35.669Z,90.49
2022-10-25T09:41:35.672Z,89.37
2022-10-25T09:42:35.651Z,89.48
2022-10-25T09:43:35.645Z,89.22
2022-10-25T09:44:35.617Z,89.72
2022-10-25T09:45:38.510Z,89.52
2022-10-25T09:46:36.601Z,89.62
2022-10-25T09:47:35.584Z,89.56
2022-10-25T09:48:35.574Z,89.66
2022-10-25T09:49:35.587Z,89.56
2022-10-25T09:50:35.571Z,90.07
2022-10-25T09:51:35.538Z,90.67
2022-10-25T09:52:35.543Z,90.47
2022-10-25T09:53:35.523Z,90.47
2022-10-25T09:54:35.514Z,90.98
2022-10-25T09:55:35.513Z,89.97
2022-10-25T09:56:35.521Z,89.06
2022-10-25T09:57:35.515Z,89.36
2022-10-25T09:58:35.464Z,89.26
2022-10-25T09:59:42.083Z,90.58
2022-10-25T10:00:35.475Z,90.27
2022-10-25T10:01:35.602Z,90.58
2022-10-25T10:02:35.577Z,89.66
2022-10-25T10:03:35.476Z,89.56
2022-10-25T10:04:35.421Z,89.06
2022-10-25T10:05:43.622Z,89.36
2022-10-25T10:06:35.802Z,89.26
2022-10-25T10:07:35.401Z,89.16
2022-10-25T10:08:35.382Z,89.87
2022-10-25T10:09:35.392Z,90.67
2022-10-25T10:10:35.359Z,89.16
2022-10-25T10:11:35.394Z,89.26
2022-10-25T10:12:35.347Z,89.87
2022-10-25T10:13:35.428Z,90.53
2022-10-25T10:14:35.327Z,89.42
2022-10-25T10:15:45.061Z,89.42
2022-10-25T10:16:43.903Z,89.52
2022-10-25T10:17:43.041Z,89.62
2022-10-25T10:19:51.572Z,88.87
2022-10-25T10:21:00.309Z,88.61
2022-10-25T10:21:51.659Z,88.71
2022-10-25T10:23:04.930Z,88.71
2022-10-25T10:23:52.564Z,89.12
